sensor_id;sensor_type;location;lat;lon;timestamp;pressure;altitude;pressure_sealevel;temperature;humidity
61697;BME280;47610;52.252;20.922;2023-07-31T00:03:45;99613.23;;;20.73;100.00
61697;BME280;47610;52.252;20.922;2023-07-31T00:08:48;99624.19;;;20.67;100.00
61697;BME280;47610;52.252;20.922;2023-07-31T00:13:52;99628.48;;;20.59;100.00
61697;BME280;47610;52.252;20.922;2023-07-31T00:18:55;99626.58;;;20.52;100.00
61697;BME280;47610;52.252;20.922;2023-07-31T00:23:58;99626.77;;;20.44;100.00
61697;BME280;47610;52.252;20.922;2023-07-31T00:29:01;99632.27;;;20.37;100.00
61697;BME280;47610;52.252;20.922;2023-07-31T00:34:04;99630.55;;;20.29;100.00
61697;BME280;47610;52.252;20.922;2023-07-31T00:39:07;99626.53;;;20.22;100.00
61697;BME280;47610;52.252;20.922;2023-07-31T00:44:10;99624.07;;;20.16;100.00
61697;BME280;47610;52.252;20.922;2023-07-31T00:49:14;99620.78;;;20.10;100.00
61697;BME280;47610;52.252;20.922;2023-07-31T00:54:17;99616.23;;;20.10;100.00
61697;BME280;47610;52.252;20.922;2023-07-31T00:59:20;99612.44;;;20.14;100.00
61697;BME280;47610;52.252;20.922;2023-07-31T01:04:23;99612.27;;;20.14;100.00
61697;BME280;47610;52.252;20.922;2023-07-31T01:09:31;99618.11;;;20.11;100.00
61697;BME280;47610;52.252;20.922;2023-07-31T01:14:37;99623.86;;;20.05;100.00
61697;BME280;47610;52.252;20.922;2023-07-31T01:19:40;99626.66;;;19.97;100.00
61697;BME280;47610;52.252;20.922;2023-07-31T01:24:57;99621.79;;;19.91;100.00
61697;BME280;47610;52.252;20.922;2023-07-31T01:30:07;99619.34;;;19.86;100.00
61697;BME280;47610;52.252;20.922;2023-07-31T01:35:12;99623.92;;;19.80;100.00
61697;BME280;47610;52.252;20.922;2023-07-31T01:40:15;99627.45;;;19.76;100.00
61697;BME280;47610;52.252;20.922;2023-07-31T01:45:19;99626.23;;;19.70;100.00
61697;BME280;47610;52.252;20.922;2023-07-31T01:50:22;99625.30;;;19.66;100.00
61697;BME280;47610;52.252;20.922;2023-07-31T01:55:25;99627.58;;;19.59;100.00
61697;BME280;47610;52.252;20.922;2023-07-31T02:00:29;99642.54;;;19.52;100.00
61697;BME280;47610;52.252;20.922;2023-07-31T02:05:32;99633.67;;;19.42;100.00
61697;BME280;47610;52.252;20.922;2023-07-31T02:10:35;99631.16;;;19.35;100.00
61697;BME280;47610;52.252;20.922;2023-07-31T02:15:38;99643.24;;;19.31;100.00
61697;BME280;47610;52.252;20.922;2023-07-31T02:20:41;99644.77;;;19.26;100.00
61697;BME280;47610;52.252;20.922;2023-07-31T02:25:44;99649.52;;;19.22;100.00
61697;BME280;47610;52.252;20.922;2023-07-31T02:30:47;99650.91;;;19.18;100.00
61697;BME280;47610;52.252;20.922;2023-07-31T02:35:50;99653.77;;;19.13;100.00
61697;BME280;47610;52.252;20.922;2023-07-31T02:40:53;99664.54;;;19.08;100.00
61697;BME280;47610;52.252;20.922;2023-07-31T02:45:56;99666.25;;;19.04;100.00
61697;BME280;47610;52.252;20.922;2023-07-31T02:50:59;99664.14;;;19.03;100.00
61697;BME280;47610;52.252;20.922;2023-07-31T02:56:02;99656.19;;;19.04;100.00
61697;BME280;47610;52.252;20.922;2023-07-31T03:01:06;99660.30;;;19.05;100.00
61697;BME280;47610;52.252;20.922;2023-07-31T03:06:09;99662.27;;;19.04;100.00
61697;BME280;47610;52.252;20.922;2023-07-31T03:11:12;99658.99;;;19.02;100.00
61697;BME280;47610;52.252;20.922;2023-07-31T03:16:15;99660.70;;;19.05;100.00
61697;BME280;47610;52.252;20.922;2023-07-31T03:21:18;99662.62;;;19.08;100.00
61697;BME280;47610;52.252;20.922;2023-07-31T03:26:21;99666.50;;;19.12;100.00
61697;BME280;47610;52.252;20.922;2023-07-31T03:31:24;99672.11;;;19.21;100.00
61697;BME280;47610;52.252;20.922;2023-07-31T03:36:27;99674.88;;;19.27;100.00
61697;BME280;47610;52.252;20.922;2023-07-31T03:41:30;99681.70;;;19.31;100.00
61697;BME280;47610;52.252;20.922;2023-07-31T03:46:33;99686.59;;;19.36;100.00
61697;BME280;47610;52.252;20.922;2023-07-31T03:51:36;99689.61;;;19.40;100.00
61697;BME280;47610;52.252;20.922;2023-07-31T03:56:39;99696.08;;;19.43;100.00
61697;BME280;47610;52.252;20.922;2023-07-31T04:01:42;99703.84;;;19.44;100.00
61697;BME280;47610;52.252;20.922;2023-07-31T04:06:46;99699.61;;;19.44;100.00
61697;BME280;47610;52.252;20.922;2023-07-31T04:11:49;99709.77;;;19.45;100.00
61697;BME280;47610;52.252;20.922;2023-07-31T04:16:52;99713.77;;;19.48;100.00
61697;BME280;47610;52.252;20.922;2023-07-31T04:21:55;99717.14;;;19.49;100.00
61697;BME280;47610;52.252;20.922;2023-07-31T04:26:58;99721.33;;;19.50;100.00
61697;BME280;47610;52.252;20.922;2023-07-31T04:32:02;99724.07;;;19.48;100.00
61697;BME280;47610;52.252;20.922;2023-07-31T04:37:05;99722.72;;;19.46;100.00
61697;BME280;47610;52.252;20.922;2023-07-31T04:42:08;99726.95;;;19.46;100.00
61697;BME280;47610;52.252;20.922;2023-07-31T04:47:11;99725.30;;;19.49;100.00
61697;BME280;47610;52.252;20.922;2023-07-31T04:52:14;99725.92;;;19.51;100.00
61697;BME280;47610;52.252;20.922;2023-07-31T04:57:17;99727.73;;;19.53;100.00
61697;BME280;47610;52.252;20.922;2023-07-31T05:02:20;99723.96;;;19.55;100.00
61697;BME280;47610;52.252;20.922;2023-07-31T05:07:23;99727.13;;;19.59;100.00
61697;BME280;47610;52.252;20.922;2023-07-31T05:12:26;99736.26;;;19.64;100.00
61697;BME280;47610;52.252;20.922;2023-07-31T05:17:30;99739.29;;;19.66;100.00
61697;BME280;47610;52.252;20.922;2023-07-31T05:22:33;99739.48;;;19.69;100.00
61697;BME280;47610;52.252;20.922;2023-07-31T05:27:36;99742.34;;;19.73;100.00
61697;BME280;47610;52.252;20.922;2023-07-31T05:32:39;99746.45;;;19.80;100.00
61697;BME280;47610;52.252;20.922;2023-07-31T05:37:42;99754.09;;;19.85;100.00
61697;BME280;47610;52.252;20.922;2023-07-31T05:42:45;99760.71;;;19.91;100.00
61697;BME280;47610;52.252;20.922;2023-07-31T05:47:48;99764.52;;;19.93;100.00
61697;BME280;47610;52.252;20.922;2023-07-31T05:52:51;99766.46;;;19.96;100.00
61697;BME280;47610;52.252;20.922;2023-07-31T05:57:54;99772.30;;;20.02;100.00
61697;BME280;47610;52.252;20.922;2023-07-31T06:02:57;99776.43;;;20.04;100.00
61697;BME280;47610;52.252;20.922;2023-07-31T06:08:01;99779.23;;;20.04;100.00
61697;BME280;47610;52.252;20.922;2023-07-31T06:13:04;99781.99;;;20.06;100.00
61697;BME280;47610;52.252;20.922;2023-07-31T06:18:07;99788.95;;;20.04;100.00
61697;BME280;47610;52.252;20.922;2023-07-31T06:23:10;99789.75;;;20.04;100.00
61697;BME280;47610;52.252;20.922;2023-07-31T06:28:13;99790.27;;;20.02;100.00
61697;BME280;47610;52.252;20.922;2023-07-31T06:33:16;99785.90;;;20.00;100.00
61697;BME280;47610;52.252;20.922;2023-07-31T06:38:25;99785.56;;;19.97;100.00
61697;BME280;47610;52.252;20.922;2023-07-31T06:43:29;99786.92;;;19.92;100.00
61697;BME280;47610;52.252;20.922;2023-07-31T06:48:32;99789.63;;;19.89;100.00
61697;BME280;47610;52.252;20.922;2023-07-31T06:53:35;99797.02;;;19.91;100.00
61697;BME280;47610;52.252;20.922;2023-07-31T06:58:38;99798.16;;;19.94;100.00
61697;BME280;47610;52.252;20.922;2023-07-31T07:03:41;99796.79;;;19.96;100.00
61697;BME280;47610;52.252;20.922;2023-07-31T07:08:44;99795.02;;;20.01;100.00
61697;BME280;47610;52.252;20.922;2023-07-31T07:13:47;99798.73;;;20.19;100.00
61697;BME280;47610;52.252;20.922;2023-07-31T07:18:50;99788.43;;;20.52;100.00
61697;BME280;47610;52.252;20.922;2023-07-31T07:23:53;99798.27;;;21.03;100.00
61697;BME280;47610;52.252;20.922;2023-07-31T07:28:56;99793.74;;;21.39;100.00
61697;BME280;47610;52.252;20.922;2023-07-31T07:33:59;99789.48;;;21.67;100.00
61697;BME280;47610;52.252;20.922;2023-07-31T07:39:02;99786.25;;;21.91;100.00
61697;BME280;47610;52.252;20.922;2023-07-31T07:44:05;99784.11;;;22.14;100.00
61697;BME280;47610;52.252;20.922;2023-07-31T07:49:09;99786.44;;;22.33;100.00
61697;BME280;47610;52.252;20.922;2023-07-31T07:54:12;99789.88;;;22.45;100.00
61697;BME280;47610;52.252;20.922;2023-07-31T07:59:15;99797.80;;;22.56;100.00
61697;BME280;47610;52.252;20.922;2023-07-31T08:04:18;99797.14;;;22.72;100.00
61697;BME280;47610;52.252;20.922;2023-07-31T08:09:21;99792.44;;;22.82;100.00
61697;BME280;47610;52.252;20.922;2023-07-31T08:14:24;99785.22;;;22.99;100.00
61697;BME280;47610;52.252;20.922;2023-07-31T08:19:27;99788.41;;;23.21;100.00
61697;BME280;47610;52.252;20.922;2023-07-31T08:24:30;99788.25;;;23.36;100.00
61697;BME280;47610;52.252;20.922;2023-07-31T08:29:33;99785.19;;;23.55;100.00
61697;BME280;47610;52.252;20.922;2023-07-31T08:34:36;99787.97;;;24.21;100.00
61697;BME280;47610;52.252;20.922;2023-07-31T08:39:39;99789.83;;;25.00;100.00
61697;BME280;47610;52.252;20.922;2023-07-31T08:44:42;99787.67;;;25.35;100.00
61697;BME280;47610;52.252;20.922;2023-07-31T08:49:47;99787.14;;;26.24;100.00
61697;BME280;47610;52.252;20.922;2023-07-31T08:54:50;99797.27;;;28.29;94.11
61697;BME280;47610;52.252;20.922;2023-07-31T08:59:54;99795.02;;;29.89;80.02
61697;BME280;47610;52.252;20.922;2023-07-31T09:04:57;99798.04;;;31.26;74.54
61697;BME280;47610;52.252;20.922;2023-07-31T09:09:59;99798.19;;;32.27;66.07
61697;BME280;47610;52.252;20.922;2023-07-31T09:15:02;99804.67;;;32.94;60.81
61697;BME280;47610;52.252;20.922;2023-07-31T09:20:19;99803.95;;;33.07;58.61
61697;BME280;47610;52.252;20.922;2023-07-31T09:25:24;99805.73;;;33.03;55.15
61697;BME280;47610;52.252;20.922;2023-07-31T09:30:27;99797.40;;;32.91;53.47
61697;BME280;47610;52.252;20.922;2023-07-31T09:35:30;99791.79;;;32.14;53.30
61697;BME280;47610;52.252;20.922;2023-07-31T09:40:34;99796.08;;;31.52;53.49
61697;BME280;47610;52.252;20.922;2023-07-31T09:45:39;99792.16;;;30.81;53.67
61697;BME280;47610;52.252;20.922;2023-07-31T09:50:44;99790.92;;;30.38;53.56
61697;BME280;47610;52.252;20.922;2023-07-31T09:55:48;99791.69;;;29.63;56.86
61697;BME280;47610;52.252;20.922;2023-07-31T10:00:51;99782.98;;;30.25;55.75
61697;BME280;47610;52.252;20.922;2023-07-31T10:05:53;99786.67;;;30.55;52.87
61697;BME280;47610;52.252;20.922;2023-07-31T10:10:59;99782.68;;;30.50;51.38
61697;BME280;47610;52.252;20.922;2023-07-31T10:16:04;99785.71;;;30.15;50.68
61697;BME280;47610;52.252;20.922;2023-07-31T10:21:08;99773.94;;;29.62;51.83
61697;BME280;47610;52.252;20.922;2023-07-31T10:26:12;99781.27;;;29.31;52.94
61697;BME280;47610;52.252;20.922;2023-07-31T10:31:16;99776.59;;;29.08;52.67
61697;BME280;47610;52.252;20.922;2023-07-31T10:36:20;99773.36;;;28.92;51.47
61697;BME280;47610;52.252;20.922;2023-07-31T10:41:29;99772.85;;;28.59;51.11
61697;BME280;47610;52.252;20.922;2023-07-31T10:46:33;99774.73;;;28.33;50.14
61697;BME280;47610;52.252;20.922;2023-07-31T10:51:37;99772.69;;;28.19;51.65
61697;BME280;47610;52.252;20.922;2023-07-31T10:56:40;99775.11;;;28.23;51.68
61697;BME280;47610;52.252;20.922;2023-07-31T11:01:53;99771.48;;;27.84;50.68
61697;BME280;47610;52.252;20.922;2023-07-31T11:07:01;99766.14;;;27.54;53.35
61697;BME280;47610;52.252;20.922;2023-07-31T11:12:05;99765.16;;;27.57;54.69
61697;BME280;47610;52.252;20.922;2023-07-31T11:17:09;99767.41;;;27.57;54.79
61697;BME280;47610;52.252;20.922;2023-07-31T11:22:12;99761.71;;;27.45;53.38
61697;BME280;47610;52.252;20.922;2023-07-31T11:27:16;99761.71;;;27.27;54.23
61697;BME280;47610;52.252;20.922;2023-07-31T11:32:19;99759.75;;;27.12;55.52
61697;BME280;47610;52.252;20.922;2023-07-31T11:37:22;99761.45;;;27.14;55.82
61697;BME280;47610;52.252;20.922;2023-07-31T11:42:25;99762.01;;;27.14;55.88
61697;BME280;47610;52.252;20.922;2023-07-31T11:47:28;99759.11;;;27.07;53.67
61697;BME280;47610;52.252;20.922;2023-07-31T11:52:39;99760.88;;;26.95;55.07
61697;BME280;47610;52.252;20.922;2023-07-31T11:57:44;99757.13;;;26.69;54.59
61697;BME280;47610;52.252;20.922;2023-07-31T12:02:48;99750.63;;;26.51;56.66
61697;BME280;47610;52.252;20.922;2023-07-31T12:07:54;99750.52;;;26.42;57.54
61697;BME280;47610;52.252;20.922;2023-07-31T12:13:05;99743.86;;;26.37;58.58
61697;BME280;47610;52.252;20.922;2023-07-31T12:18:10;99743.70;;;26.31;59.41
61697;BME280;47610;52.252;20.922;2023-07-31T12:23:18;99742.64;;;26.27;59.34
61697;BME280;47610;52.252;20.922;2023-07-31T12:28:23;99740.66;;;26.17;59.48
61697;BME280;47610;52.252;20.922;2023-07-31T12:33:31;99732.88;;;26.05;60.16
61697;BME280;47610;52.252;20.922;2023-07-31T12:38:35;99722.52;;;25.93;61.55
61697;BME280;47610;52.252;20.922;2023-07-31T12:43:39;99713.98;;;25.82;61.60
61697;BME280;47610;52.252;20.922;2023-07-31T12:48:42;99705.46;;;25.73;62.88
61697;BME280;47610;52.252;20.922;2023-07-31T12:53:45;99704.48;;;25.70;63.96
61697;BME280;47610;52.252;20.922;2023-07-31T12:58:49;99695.40;;;25.73;64.84
61697;BME280;47610;52.252;20.922;2023-07-31T13:03:52;99685.59;;;25.75;63.75
61697;BME280;47610;52.252;20.922;2023-07-31T13:08:55;99685.28;;;25.62;61.24
61697;BME280;47610;52.252;20.922;2023-07-31T13:13:58;99681.29;;;25.52;61.43
61697;BME280;47610;52.252;20.922;2023-07-31T13:19:01;99678.71;;;25.54;61.45
61697;BME280;47610;52.252;20.922;2023-07-31T13:24:05;99674.90;;;25.47;58.75
61697;BME280;47610;52.252;20.922;2023-07-31T13:29:08;99671.46;;;25.39;58.72
61697;BME280;47610;52.252;20.922;2023-07-31T13:34:11;99665.13;;;25.27;57.28
61697;BME280;47610;52.252;20.922;2023-07-31T13:39:14;99666.77;;;25.12;58.43
61697;BME280;47610;52.252;20.922;2023-07-31T13:44:17;99664.45;;;25.05;57.75
61697;BME280;47610;52.252;20.922;2023-07-31T13:49:20;99663.79;;;25.03;57.81
61697;BME280;47610;52.252;20.922;2023-07-31T13:54:23;99657.59;;;25.02;58.26
61697;BME280;47610;52.252;20.922;2023-07-31T13:59:26;99654.66;;;24.96;57.51
61697;BME280;47610;52.252;20.922;2023-07-31T14:04:29;99653.97;;;24.89;57.18
61697;BME280;47610;52.252;20.922;2023-07-31T14:09:33;99648.17;;;24.79;58.17
61697;BME280;47610;52.252;20.922;2023-07-31T14:14:36;99646.57;;;24.70;59.32
61697;BME280;47610;52.252;20.922;2023-07-31T14:19:39;99646.61;;;24.66;59.96
61697;BME280;47610;52.252;20.922;2023-07-31T14:24:42;99639.84;;;24.64;61.44
61697;BME280;47610;52.252;20.922;2023-07-31T14:29:45;99635.70;;;24.67;62.58
61697;BME280;47610;52.252;20.922;2023-07-31T14:34:48;99633.79;;;24.70;63.78
61697;BME280;47610;52.252;20.922;2023-07-31T14:39:51;99625.15;;;24.74;63.27
61697;BME280;47610;52.252;20.922;2023-07-31T14:44:54;99623.48;;;24.79;64.21
61697;BME280;47610;52.252;20.922;2023-07-31T14:49:57;99616.73;;;24.89;64.99
61697;BME280;47610;52.252;20.922;2023-07-31T14:55:00;99614.17;;;24.91;64.54
61697;BME280;47610;52.252;20.922;2023-07-31T15:00:06;99614.05;;;24.87;64.58
61697;BME280;47610;52.252;20.922;2023-07-31T15:05:09;99614.98;;;24.83;64.87
61697;BME280;47610;52.252;20.922;2023-07-31T15:10:12;99614.77;;;24.75;64.92
61697;BME280;47610;52.252;20.922;2023-07-31T15:15:16;99606.80;;;24.62;65.35
61697;BME280;47610;52.252;20.922;2023-07-31T15:20:19;99603.79;;;24.79;64.93
61697;BME280;47610;52.252;20.922;2023-07-31T15:25:22;99602.29;;;25.09;66.00
61697;BME280;47610;52.252;20.922;2023-07-31T15:30:26;99600.83;;;25.26;65.54
61697;BME280;47610;52.252;20.922;2023-07-31T15:35:28;99597.42;;;25.41;63.44
61697;BME280;47610;52.252;20.922;2023-07-31T15:40:31;99591.26;;;25.48;64.63
61697;BME280;47610;52.252;20.922;2023-07-31T15:45:34;99587.35;;;25.36;65.44
61697;BME280;47610;52.252;20.922;2023-07-31T15:50:37;99586.44;;;25.33;64.16
61697;BME280;47610;52.252;20.922;2023-07-31T15:55:40;99577.26;;;25.29;63.96
61697;BME280;47610;52.252;20.922;2023-07-31T16:00:43;99581.05;;;25.17;65.51
61697;BME280;47610;52.252;20.922;2023-07-31T16:05:46;99572.65;;;25.03;66.04
61697;BME280;47610;52.252;20.922;2023-07-31T16:10:49;99570.30;;;24.85;66.69
61697;BME280;47610;52.252;20.922;2023-07-31T16:15:52;99565.45;;;24.70;69.10
61697;BME280;47610;52.252;20.922;2023-07-31T16:20:56;99560.72;;;24.61;70.22
61697;BME280;47610;52.252;20.922;2023-07-31T16:25:59;99557.92;;;24.52;70.76
61697;BME280;47610;52.252;20.922;2023-07-31T16:31:02;99557.35;;;24.43;72.44
61697;BME280;47610;52.252;20.922;2023-07-31T16:36:05;99561.17;;;24.30;74.88
61697;BME280;47610;52.252;20.922;2023-07-31T16:41:08;99562.82;;;24.27;74.40
61697;BME280;47610;52.252;20.922;2023-07-31T16:46:11;99559.86;;;24.28;75.15
61697;BME280;47610;52.252;20.922;2023-07-31T16:51:14;99561.34;;;24.23;77.03
61697;BME280;47610;52.252;20.922;2023-07-31T16:56:17;99554.57;;;24.20;77.76
61697;BME280;47610;52.252;20.922;2023-07-31T17:01:20;99559.38;;;24.01;78.08
61697;BME280;47610;52.252;20.922;2023-07-31T17:06:24;99557.91;;;23.84;79.50
61697;BME280;47610;52.252;20.922;2023-07-31T17:11:27;99561.08;;;23.73;80.40
61697;BME280;47610;52.252;20.922;2023-07-31T17:16:30;99560.92;;;23.68;80.99
61697;BME280;47610;52.252;20.922;2023-07-31T17:21:33;99568.46;;;23.60;81.56
61697;BME280;47610;52.252;20.922;2023-07-31T17:26:36;99578.73;;;23.54;82.21
61697;BME280;47610;52.252;20.922;2023-07-31T17:31:39;99582.40;;;23.45;82.80
61697;BME280;47610;52.252;20.922;2023-07-31T17:36:42;99584.83;;;23.34;84.08
61697;BME280;47610;52.252;20.922;2023-07-31T17:41:45;99588.60;;;23.28;85.12
61697;BME280;47610;52.252;20.922;2023-07-31T17:46:48;99601.98;;;23.26;86.47
61697;BME280;47610;52.252;20.922;2023-07-31T17:51:51;99614.17;;;23.21;88.29
61697;BME280;47610;52.252;20.922;2023-07-31T17:56:54;99612.95;;;23.08;92.94
61697;BME280;47610;52.252;20.922;2023-07-31T18:01:57;99616.94;;;22.82;99.84
61697;BME280;47610;52.252;20.922;2023-07-31T18:07:00;99614.17;;;22.59;100.00
61697;BME280;47610;52.252;20.922;2023-07-31T18:12:04;99620.36;;;22.50;100.00
61697;BME280;47610;52.252;20.922;2023-07-31T18:17:06;99617.73;;;22.47;100.00
61697;BME280;47610;52.252;20.922;2023-07-31T18:22:09;99616.05;;;22.38;100.00
61697;BME280;47610;52.252;20.922;2023-07-31T18:27:12;99621.82;;;22.28;100.00
61697;BME280;47610;52.252;20.922;2023-07-31T18:32:16;99614.60;;;22.19;100.00
61697;BME280;47610;52.252;20.922;2023-07-31T18:37:19;99610.02;;;22.07;100.00
61697;BME280;47610;52.252;20.922;2023-07-31T18:42:22;99612.03;;;21.95;100.00
61697;BME280;47610;52.252;20.922;2023-07-31T18:47:25;99610.12;;;21.82;100.00
61697;BME280;47610;52.252;20.922;2023-07-31T18:52:28;99608.35;;;21.78;100.00
61697;BME280;47610;52.252;20.922;2023-07-31T18:57:31;99611.34;;;21.64;100.00
61697;BME280;47610;52.252;20.922;2023-07-31T19:02:34;99615.95;;;21.50;100.00
61697;BME280;47610;52.252;20.922;2023-07-31T19:07:37;99614.36;;;21.47;100.00
61697;BME280;47610;52.252;20.922;2023-07-31T19:12:40;99616.93;;;21.51;100.00
61697;BME280;47610;52.252;20.922;2023-07-31T19:17:43;99612.82;;;21.58;100.00
61697;BME280;47610;52.252;20.922;2023-07-31T19:22:46;99606.86;;;21.79;100.00
61697;BME280;47610;52.252;20.922;2023-07-31T19:27:49;99609.39;;;22.07;100.00
61697;BME280;47610;52.252;20.922;2023-07-31T19:32:53;99614.41;;;22.11;100.00
61697;BME280;47610;52.252;20.922;2023-07-31T19:37:56;99608.00;;;21.76;100.00
61697;BME280;47610;52.252;20.922;2023-07-31T19:42:59;99610.87;;;21.45;100.00
61697;BME280;47610;52.252;20.922;2023-07-31T19:48:02;99609.89;;;21.19;100.00
61697;BME280;47610;52.252;20.922;2023-07-31T19:53:05;99605.78;;;21.06;100.00
61697;BME280;47610;52.252;20.922;2023-07-31T19:58:08;99605.63;;;21.07;100.00
61697;BME280;47610;52.252;20.922;2023-07-31T20:03:11;99607.59;;;20.98;100.00
61697;BME280;47610;52.252;20.922;2023-07-31T20:08:15;99604.54;;;20.91;100.00
61697;BME280;47610;52.252;20.922;2023-07-31T20:13:18;99600.92;;;20.93;100.00
61697;BME280;47610;52.252;20.922;2023-07-31T20:18:21;99602.54;;;21.04;100.00
61697;BME280;47610;52.252;20.922;2023-07-31T20:23:24;99598.22;;;21.12;100.00
61697;BME280;47610;52.252;20.922;2023-07-31T20:28:27;99593.93;;;21.20;100.00
61697;BME280;47610;52.252;20.922;2023-07-31T20:33:30;99584.60;;;21.29;100.00
61697;BME280;47610;52.252;20.922;2023-07-31T20:38:33;99580.52;;;21.36;100.00
61697;BME280;47610;52.252;20.922;2023-07-31T20:43:36;99567.64;;;21.39;100.00
61697;BME280;47610;52.252;20.922;2023-07-31T20:48:40;99555.34;;;21.43;100.00
61697;BME280;47610;52.252;20.922;2023-07-31T20:53:43;99545.05;;;21.44;100.00
61697;BME280;47610;52.252;20.922;2023-07-31T20:58:46;99541.22;;;21.41;100.00
61697;BME280;47610;52.252;20.922;2023-07-31T21:03:49;99537.39;;;21.38;100.00
61697;BME280;47610;52.252;20.922;2023-07-31T21:08:52;99532.79;;;21.40;100.00
61697;BME280;47610;52.252;20.922;2023-07-31T21:13:55;99524.59;;;21.35;100.00
61697;BME280;47610;52.252;20.922;2023-07-31T21:18:58;99521.73;;;21.33;100.00
61697;BME280;47610;52.252;20.922;2023-07-31T21:24:02;99517.20;;;21.34;100.00
61697;BME280;47610;52.252;20.922;2023-07-31T21:29:05;99516.79;;;21.33;100.00
61697;BME280;47610;52.252;20.922;2023-07-31T21:34:09;99509.20;;;21.30;100.00
61697;BME280;47610;52.252;20.922;2023-07-31T21:39:12;99507.48;;;21.32;100.00
61697;BME280;47610;52.252;20.922;2023-07-31T21:44:15;99497.59;;;21.25;100.00
61697;BME280;47610;52.252;20.922;2023-07-31T21:49:18;99494.92;;;21.16;100.00
61697;BME280;47610;52.252;20.922;2023-07-31T21:54:21;99493.11;;;21.05;100.00
61697;BME280;47610;52.252;20.922;2023-07-31T21:59:24;99488.77;;;21.00;100.00
61697;BME280;47610;52.252;20.922;2023-07-31T22:04:27;99477.96;;;20.96;100.00
61697;BME280;47610;52.252;20.922;2023-07-31T22:09:30;99470.35;;;20.98;100.00
61697;BME280;47610;52.252;20.922;2023-07-31T22:14:33;99469.80;;;20.99;100.00
61697;BME280;47610;52.252;20.922;2023-07-31T22:19:37;99467.21;;;20.90;100.00
61697;BME280;47610;52.252;20.922;2023-07-31T22:24:40;99464.47;;;20.89;100.00
61697;BME280;47610;52.252;20.922;2023-07-31T22:29:43;99463.15;;;20.95;100.00
61697;BME280;47610;52.252;20.922;2023-07-31T22:34:46;99466.46;;;20.96;100.00
61697;BME280;47610;52.252;20.922;2023-07-31T22:39:49;99463.70;;;21.01;100.00
61697;BME280;47610;52.252;20.922;2023-07-31T22:44:52;99463.48;;;21.07;100.00
61697;BME280;47610;52.252;20.922;2023-07-31T22:49:55;99458.08;;;21.04;100.00
61697;BME280;47610;52.252;20.922;2023-07-31T22:54:58;99453.33;;;21.02;100.00
61697;BME280;47610;52.252;20.922;2023-07-31T23:00:02;99453.98;;;20.99;100.00
61697;BME280;47610;52.252;20.922;2023-07-31T23:05:06;99451.67;;;21.00;100.00
61697;BME280;47610;52.252;20.922;2023-07-31T23:10:08;99445.51;;;20.99;100.00
61697;BME280;47610;52.252;20.922;2023-07-31T23:15:13;99438.61;;;21.02;100.00
61697;BME280;47610;52.252;20.922;2023-07-31T23:20:16;99436.73;;;21.00;100.00
61697;BME280;47610;52.252;20.922;2023-07-31T23:25:19;99436.27;;;20.96;100.00
61697;BME280;47610;52.252;20.922;2023-07-31T23:30:22;99440.79;;;20.95;100.00
61697;BME280;47610;52.252;20.922;2023-07-31T23:35:29;99442.04;;;20.94;100.00
61697;BME280;47610;52.252;20.922;2023-07-31T23:40:32;99442.48;;;20.92;100.00
61697;BME280;47610;52.252;20.922;2023-07-31T23:45:36;99438.44;;;20.97;100.00
61697;BME280;47610;52.252;20.922;2023-07-31T23:50:39;99433.49;;;21.01;100.00
61697;BME280;47610;52.252;20.922;2023-07-31T23:55:42;99425.27;;;20.98;100.00
